sensor_id;sensor_type;location;lat;lon;timestamp;P1;durP1;ratioP1;P2;durP2;ratioP2
4278;SDS011;2153;47.744;10.580;2023-05-10T00:00:37;12.57;;;0.80;;
4278;SDS011;2153;47.744;10.580;2023-05-10T00:03:03;10.57;;;0.90;;
4278;SDS011;2153;47.744;10.580;2023-05-10T00:05:30;10.37;;;0.80;;
4278;SDS011;2153;47.744;10.580;2023-05-10T00:07:57;10.40;;;0.97;;
4278;SDS011;2153;47.744;10.580;2023-05-10T00:10:25;10.07;;;0.70;;
4278;SDS011;2153;47.744;10.580;2023-05-10T00:12:52;10.70;;;0.80;;
4278;SDS011;2153;47.744;10.580;2023-05-10T00:15:18;10.40;;;0.80;;
4278;SDS011;2153;47.744;10.580;2023-05-10T00:17:45;11.87;;;0.80;;
4278;SDS011;2153;47.744;10.580;2023-05-10T00:20:12;10.57;;;0.60;;
4278;SDS011;2153;47.744;10.580;2023-05-10T00:22:38;10.40;;;0.80;;
4278;SDS011;2153;47.744;10.580;2023-05-10T00:25:06;10.37;;;0.83;;
4278;SDS011;2153;47.744;10.580;2023-05-10T00:27:35;11.37;;;0.80;;
4278;SDS011;2153;47.744;10.580;2023-05-10T00:30:02;15.50;;;0.90;;
4278;SDS011;2153;47.744;10.580;2023-05-10T00:32:29;19.83;;;1.00;;
4278;SDS011;2153;47.744;10.580;2023-05-10T00:34:56;13.33;;;0.80;;
4278;SDS011;2153;47.744;10.580;2023-05-10T00:37:22;12.80;;;0.80;;
4278;SDS011;2153;47.744;10.580;2023-05-10T00:39:49;10.17;;;0.70;;
4278;SDS011;2153;47.744;10.580;2023-05-10T00:42:16;10.43;;;0.80;;
4278;SDS011;2153;47.744;10.580;2023-05-10T00:44:44;10.70;;;0.90;;
4278;SDS011;2153;47.744;10.580;2023-05-10T00:47:11;9.83;;;0.50;;
4278;SDS011;2153;47.744;10.580;2023-05-10T00:49:38;11.53;;;0.73;;
4278;SDS011;2153;47.744;10.580;2023-05-10T00:52:05;18.73;;;0.90;;
4278;SDS011;2153;47.744;10.580;2023-05-10T00:54:32;10.20;;;0.80;;
4278;SDS011;2153;47.744;10.580;2023-05-10T00:56:59;12.00;;;0.70;;
4278;SDS011;2153;47.744;10.580;2023-05-10T00:59:26;10.20;;;0.60;;
4278;SDS011;2153;47.744;10.580;2023-05-10T01:01:54;11.93;;;0.70;;
4278;SDS011;2153;47.744;10.580;2023-05-10T01:04:21;10.30;;;0.70;;
4278;SDS011;2153;47.744;10.580;2023-05-10T01:06:50;11.40;;;0.93;;
4278;SDS011;2153;47.744;10.580;2023-05-10T01:09:17;10.40;;;0.70;;
4278;SDS011;2153;47.744;10.580;2023-05-10T01:11:44;10.00;;;0.60;;
4278;SDS011;2153;47.744;10.580;2023-05-10T01:14:11;10.27;;;0.70;;
4278;SDS011;2153;47.744;10.580;2023-05-10T01:16:38;9.93;;;0.60;;
4278;SDS011;2153;47.744;10.580;2023-05-10T01:19:11;11.23;;;0.70;;
4278;SDS011;2153;47.744;10.580;2023-05-10T01:21:48;10.03;;;0.63;;
4278;SDS011;2153;47.744;10.580;2023-05-10T01:24:28;10.20;;;0.77;;
4278;SDS011;2153;47.744;10.580;2023-05-10T01:27:41;10.27;;;0.80;;
4278;SDS011;2153;47.744;10.580;2023-05-10T01:30:25;10.13;;;0.70;;
4278;SDS011;2153;47.744;10.580;2023-05-10T01:33:15;10.30;;;0.60;;
4278;SDS011;2153;47.744;10.580;2023-05-10T01:35:47;9.90;;;0.60;;
4278;SDS011;2153;47.744;10.580;2023-05-10T01:38:20;10.27;;;0.73;;
4278;SDS011;2153;47.744;10.580;2023-05-10T01:40:57;9.83;;;0.60;;
4278;SDS011;2153;47.744;10.580;2023-05-10T01:43:37;9.93;;;0.60;;
4278;SDS011;2153;47.744;10.580;2023-05-10T01:46:09;9.97;;;0.60;;
4278;SDS011;2153;47.744;10.580;2023-05-10T01:48:47;12.40;;;0.90;;
4278;SDS011;2153;47.744;10.580;2023-05-10T01:51:17;9.87;;;0.67;;
4278;SDS011;2153;47.744;10.580;2023-05-10T01:53:48;9.77;;;0.53;;
4278;SDS011;2153;47.744;10.580;2023-05-10T01:56:18;14.37;;;0.97;;
4278;SDS011;2153;47.744;10.580;2023-05-10T01:58:49;11.03;;;0.70;;
4278;SDS011;2153;47.744;10.580;2023-05-10T02:01:16;11.67;;;0.70;;
4278;SDS011;2153;47.744;10.580;2023-05-10T02:03:47;11.90;;;0.90;;
4278;SDS011;2153;47.744;10.580;2023-05-10T02:06:18;10.60;;;0.70;;
4278;SDS011;2153;47.744;10.580;2023-05-10T02:08:46;10.07;;;0.70;;
4278;SDS011;2153;47.744;10.580;2023-05-10T02:11:15;10.20;;;0.80;;
4278;SDS011;2153;47.744;10.580;2023-05-10T02:13:46;9.93;;;0.63;;
4278;SDS011;2153;47.744;10.580;2023-05-10T02:16:15;13.03;;;0.60;;
4278;SDS011;2153;47.744;10.580;2023-05-10T02:18:42;10.47;;;0.70;;
4278;SDS011;2153;47.744;10.580;2023-05-10T02:21:11;10.27;;;0.53;;
4278;SDS011;2153;47.744;10.580;2023-05-10T02:23:40;16.17;;;0.80;;
4278;SDS011;2153;47.744;10.580;2023-05-10T02:26:08;11.70;;;0.67;;
4278;SDS011;2153;47.744;10.580;2023-05-10T02:28:36;12.50;;;0.70;;
4278;SDS011;2153;47.744;10.580;2023-05-10T02:31:05;13.50;;;0.60;;
4278;SDS011;2153;47.744;10.580;2023-05-10T02:33:32;10.07;;;0.67;;
4278;SDS011;2153;47.744;10.580;2023-05-10T02:36:00;9.93;;;0.80;;
4278;SDS011;2153;47.744;10.580;2023-05-10T02:38:30;10.40;;;0.70;;
4278;SDS011;2153;47.744;10.580;2023-05-10T02:40:58;10.47;;;0.60;;
4278;SDS011;2153;47.744;10.580;2023-05-10T02:43:26;9.80;;;0.50;;
4278;SDS011;2153;47.744;10.580;2023-05-10T02:45:56;9.83;;;0.60;;
4278;SDS011;2153;47.744;10.580;2023-05-10T02:48:23;9.80;;;0.60;;
4278;SDS011;2153;47.744;10.580;2023-05-10T02:50:50;13.33;;;0.50;;
4278;SDS011;2153;47.744;10.580;2023-05-10T02:53:21;10.00;;;0.70;;
4278;SDS011;2153;47.744;10.580;2023-05-10T02:55:51;10.80;;;0.83;;
4278;SDS011;2153;47.744;10.580;2023-05-10T02:58:20;10.03;;;0.60;;
4278;SDS011;2153;47.744;10.580;2023-05-10T03:00:47;11.43;;;0.60;;
4278;SDS011;2153;47.744;10.580;2023-05-10T03:03:14;10.70;;;0.60;;
4278;SDS011;2153;47.744;10.580;2023-05-10T03:05:41;9.87;;;0.60;;
4278;SDS011;2153;47.744;10.580;2023-05-10T03:08:07;9.73;;;0.50;;
4278;SDS011;2153;47.744;10.580;2023-05-10T03:10:41;9.83;;;0.60;;
4278;SDS011;2153;47.744;10.580;2023-05-10T03:13:16;9.77;;;0.50;;
4278;SDS011;2153;47.744;10.580;2023-05-10T03:15:59;10.63;;;0.80;;
4278;SDS011;2153;47.744;10.580;2023-05-10T03:18:33;10.40;;;0.60;;
4278;SDS011;2153;47.744;10.580;2023-05-10T03:21:08;9.87;;;0.63;;
4278;SDS011;2153;47.744;10.580;2023-05-10T03:23:40;11.17;;;0.60;;
4278;SDS011;2153;47.744;10.580;2023-05-10T03:26:09;11.47;;;0.63;;
4278;SDS011;2153;47.744;10.580;2023-05-10T03:28:39;10.50;;;0.63;;
4278;SDS011;2153;47.744;10.580;2023-05-10T03:31:07;11.30;;;0.70;;
4278;SDS011;2153;47.744;10.580;2023-05-10T03:33:34;12.07;;;0.80;;
4278;SDS011;2153;47.744;10.580;2023-05-10T03:36:01;9.77;;;0.50;;
4278;SDS011;2153;47.744;10.580;2023-05-10T03:38:27;9.90;;;0.60;;
4278;SDS011;2153;47.744;10.580;2023-05-10T03:40:54;10.07;;;0.57;;
4278;SDS011;2153;47.744;10.580;2023-05-10T03:43:21;10.17;;;0.67;;
4278;SDS011;2153;47.744;10.580;2023-05-10T03:45:49;10.10;;;0.60;;
4278;SDS011;2153;47.744;10.580;2023-05-10T03:48:15;10.40;;;0.57;;
4278;SDS011;2153;47.744;10.580;2023-05-10T03:50:42;10.53;;;0.60;;
4278;SDS011;2153;47.744;10.580;2023-05-10T03:53:09;10.00;;;0.70;;
4278;SDS011;2153;47.744;10.580;2023-05-10T03:55:35;13.27;;;0.70;;
4278;SDS011;2153;47.744;10.580;2023-05-10T03:58:02;9.80;;;0.60;;
4278;SDS011;2153;47.744;10.580;2023-05-10T04:00:29;10.00;;;0.60;;
4278;SDS011;2153;47.744;10.580;2023-05-10T04:02:57;13.73;;;0.70;;
4278;SDS011;2153;47.744;10.580;2023-05-10T04:05:24;10.07;;;0.80;;
4278;SDS011;2153;47.744;10.580;2023-05-10T04:07:51;9.77;;;0.60;;
4278;SDS011;2153;47.744;10.580;2023-05-10T04:10:18;9.73;;;0.63;;
4278;SDS011;2153;47.744;10.580;2023-05-10T04:12:45;9.90;;;0.80;;
4278;SDS011;2153;47.744;10.580;2023-05-10T04:15:12;10.10;;;0.70;;
4278;SDS011;2153;47.744;10.580;2023-05-10T04:17:39;9.70;;;0.60;;
4278;SDS011;2153;47.744;10.580;2023-05-10T04:20:07;9.93;;;0.60;;
4278;SDS011;2153;47.744;10.580;2023-05-10T04:22:35;11.70;;;0.90;;
4278;SDS011;2153;47.744;10.580;2023-05-10T04:25:01;10.37;;;0.93;;
4278;SDS011;2153;47.744;10.580;2023-05-10T04:27:29;14.87;;;1.07;;
4278;SDS011;2153;47.744;10.580;2023-05-10T04:29:56;9.97;;;0.80;;
4278;SDS011;2153;47.744;10.580;2023-05-10T04:32:22;12.17;;;0.70;;
4278;SDS011;2153;47.744;10.580;2023-05-10T04:34:49;11.00;;;0.80;;
4278;SDS011;2153;47.744;10.580;2023-05-10T04:37:18;20.20;;;1.57;;
4278;SDS011;2153;47.744;10.580;2023-05-10T04:39:44;12.43;;;1.60;;
4278;SDS011;2153;47.744;10.580;2023-05-10T04:42:11;12.07;;;0.83;;
4278;SDS011;2153;47.744;10.580;2023-05-10T04:44:39;21.07;;;1.07;;
4278;SDS011;2153;47.744;10.580;2023-05-10T04:47:06;10.30;;;0.80;;
4278;SDS011;2153;47.744;10.580;2023-05-10T04:49:33;9.83;;;0.70;;
4278;SDS011;2153;47.744;10.580;2023-05-10T04:52:00;10.80;;;0.80;;
4278;SDS011;2153;47.744;10.580;2023-05-10T04:54:28;10.70;;;0.80;;
4278;SDS011;2153;47.744;10.580;2023-05-10T04:56:54;10.13;;;0.90;;
4278;SDS011;2153;47.744;10.580;2023-05-10T04:59:21;9.97;;;0.73;;
4278;SDS011;2153;47.744;10.580;2023-05-10T05:01:48;10.10;;;0.83;;
4278;SDS011;2153;47.744;10.580;2023-05-10T05:04:14;10.23;;;0.80;;
4278;SDS011;2153;47.744;10.580;2023-05-10T05:06:41;10.30;;;0.80;;
4278;SDS011;2153;47.744;10.580;2023-05-10T05:09:08;10.30;;;0.97;;
4278;SDS011;2153;47.744;10.580;2023-05-10T05:11:37;9.77;;;0.67;;
4278;SDS011;2153;47.744;10.580;2023-05-10T05:14:04;10.00;;;0.93;;
4278;SDS011;2153;47.744;10.580;2023-05-10T05:16:31;10.00;;;0.80;;
4278;SDS011;2153;47.744;10.580;2023-05-10T05:18:58;10.23;;;0.70;;
4278;SDS011;2153;47.744;10.580;2023-05-10T05:21:26;12.33;;;0.80;;
4278;SDS011;2153;47.744;10.580;2023-05-10T05:23:53;17.00;;;0.90;;
4278;SDS011;2153;47.744;10.580;2023-05-10T05:26:20;11.50;;;1.00;;
4278;SDS011;2153;47.744;10.580;2023-05-10T05:28:48;12.47;;;0.90;;
4278;SDS011;2153;47.744;10.580;2023-05-10T05:31:18;15.33;;;1.00;;
4278;SDS011;2153;47.744;10.580;2023-05-10T05:33:45;10.23;;;0.90;;
4278;SDS011;2153;47.744;10.580;2023-05-10T05:36:12;10.07;;;0.90;;
4278;SDS011;2153;47.744;10.580;2023-05-10T05:38:38;10.20;;;0.97;;
4278;SDS011;2153;47.744;10.580;2023-05-10T05:41:05;12.60;;;0.80;;
4278;SDS011;2153;47.744;10.580;2023-05-10T05:43:32;10.57;;;0.80;;
4278;SDS011;2153;47.744;10.580;2023-05-10T05:46:00;10.60;;;0.80;;
4278;SDS011;2153;47.744;10.580;2023-05-10T05:48:27;10.23;;;1.00;;
4278;SDS011;2153;47.744;10.580;2023-05-10T05:50:55;10.50;;;0.80;;
4278;SDS011;2153;47.744;10.580;2023-05-10T05:53:22;13.70;;;1.00;;
4278;SDS011;2153;47.744;10.580;2023-05-10T05:55:52;9.97;;;0.87;;
4278;SDS011;2153;47.744;10.580;2023-05-10T05:58:20;10.80;;;1.10;;
4278;SDS011;2153;47.744;10.580;2023-05-10T06:00:47;10.60;;;0.90;;
4278;SDS011;2153;47.744;10.580;2023-05-10T06:03:15;11.67;;;0.93;;
4278;SDS011;2153;47.744;10.580;2023-05-10T06:05:41;10.37;;;0.90;;
4278;SDS011;2153;47.744;10.580;2023-05-10T06:08:08;11.07;;;1.00;;
4278;SDS011;2153;47.744;10.580;2023-05-10T06:10:35;9.83;;;0.60;;
4278;SDS011;2153;47.744;10.580;2023-05-10T06:13:02;11.93;;;0.97;;
4278;SDS011;2153;47.744;10.580;2023-05-10T06:15:29;10.70;;;1.10;;
4278;SDS011;2153;47.744;10.580;2023-05-10T06:17:55;16.03;;;0.90;;
4278;SDS011;2153;47.744;10.580;2023-05-10T06:20:23;10.07;;;0.80;;
4278;SDS011;2153;47.744;10.580;2023-05-10T06:22:50;10.07;;;0.80;;
4278;SDS011;2153;47.744;10.580;2023-05-10T06:25:17;10.37;;;0.97;;
4278;SDS011;2153;47.744;10.580;2023-05-10T06:27:44;10.50;;;1.00;;
4278;SDS011;2153;47.744;10.580;2023-05-10T06:30:11;13.57;;;0.87;;
4278;SDS011;2153;47.744;10.580;2023-05-10T06:32:40;10.70;;;0.80;;
4278;SDS011;2153;47.744;10.580;2023-05-10T06:35:08;10.50;;;0.70;;
4278;SDS011;2153;47.744;10.580;2023-05-10T06:37:37;10.47;;;0.80;;
4278;SDS011;2153;47.744;10.580;2023-05-10T06:40:04;12.93;;;0.97;;
4278;SDS011;2153;47.744;10.580;2023-05-10T06:42:32;10.30;;;0.77;;
4278;SDS011;2153;47.744;10.580;2023-05-10T06:44:58;14.57;;;0.70;;
4278;SDS011;2153;47.744;10.580;2023-05-10T06:47:25;10.70;;;0.90;;
4278;SDS011;2153;47.744;10.580;2023-05-10T06:49:52;11.47;;;0.83;;
4278;SDS011;2153;47.744;10.580;2023-05-10T06:52:18;10.47;;;0.80;;
4278;SDS011;2153;47.744;10.580;2023-05-10T06:54:47;10.07;;;0.73;;
4278;SDS011;2153;47.744;10.580;2023-05-10T06:57:13;10.00;;;0.70;;
4278;SDS011;2153;47.744;10.580;2023-05-10T06:59:40;10.10;;;0.67;;
4278;SDS011;2153;47.744;10.580;2023-05-10T07:02:07;10.53;;;1.27;;
4278;SDS011;2153;47.744;10.580;2023-05-10T07:04:33;10.33;;;0.83;;
4278;SDS011;2153;47.744;10.580;2023-05-10T07:07:00;10.30;;;0.80;;
4278;SDS011;2153;47.744;10.580;2023-05-10T07:09:27;11.30;;;1.10;;
4278;SDS011;2153;47.744;10.580;2023-05-10T07:11:56;10.60;;;1.00;;
4278;SDS011;2153;47.744;10.580;2023-05-10T07:14:23;10.30;;;1.00;;
4278;SDS011;2153;47.744;10.580;2023-05-10T07:16:49;10.47;;;1.00;;
4278;SDS011;2153;47.744;10.580;2023-05-10T07:19:16;11.53;;;1.03;;
4278;SDS011;2153;47.744;10.580;2023-05-10T07:21:43;10.30;;;0.87;;
4278;SDS011;2153;47.744;10.580;2023-05-10T07:24:10;10.13;;;0.80;;
4278;SDS011;2153;47.744;10.580;2023-05-10T07:26:36;10.07;;;0.77;;
4278;SDS011;2153;47.744;10.580;2023-05-10T07:29:05;10.43;;;0.80;;
4278;SDS011;2153;47.744;10.580;2023-05-10T07:31:31;11.20;;;1.00;;
4278;SDS011;2153;47.744;10.580;2023-05-10T07:33:58;11.30;;;1.20;;
4278;SDS011;2153;47.744;10.580;2023-05-10T07:36:25;11.97;;;1.13;;
4278;SDS011;2153;47.744;10.580;2023-05-10T07:38:52;13.03;;;1.10;;
4278;SDS011;2153;47.744;10.580;2023-05-10T07:41:19;12.60;;;0.90;;
4278;SDS011;2153;47.744;10.580;2023-05-10T07:43:47;11.70;;;1.27;;
4278;SDS011;2153;47.744;10.580;2023-05-10T07:46:15;11.60;;;1.10;;
4278;SDS011;2153;47.744;10.580;2023-05-10T07:48:42;12.40;;;0.93;;
4278;SDS011;2153;47.744;10.580;2023-05-10T07:51:08;11.67;;;1.10;;
4278;SDS011;2153;47.744;10.580;2023-05-10T07:53:35;10.37;;;0.93;;
4278;SDS011;2153;47.744;10.580;2023-05-10T07:58:46;11.60;;;1.33;;
4278;SDS011;2153;47.744;10.580;2023-05-10T08:01:13;11.03;;;1.20;;
4278;SDS011;2153;47.744;10.580;2023-05-10T08:03:41;10.80;;;1.10;;
4278;SDS011;2153;47.744;10.580;2023-05-10T08:06:08;10.80;;;1.30;;
4278;SDS011;2153;47.744;10.580;2023-05-10T08:08:34;10.67;;;1.10;;
4278;SDS011;2153;47.744;10.580;2023-05-10T08:11:01;11.50;;;1.30;;
4278;SDS011;2153;47.744;10.580;2023-05-10T08:13:28;11.13;;;1.07;;
4278;SDS011;2153;47.744;10.580;2023-05-10T08:15:56;10.70;;;1.20;;
4278;SDS011;2153;47.744;10.580;2023-05-10T08:18:23;10.60;;;1.20;;
4278;SDS011;2153;47.744;10.580;2023-05-10T08:20:51;12.97;;;1.10;;
4278;SDS011;2153;47.744;10.580;2023-05-10T08:23:17;10.90;;;1.03;;
4278;SDS011;2153;47.744;10.580;2023-05-10T08:25:44;11.20;;;1.03;;
4278;SDS011;2153;47.744;10.580;2023-05-10T08:28:11;10.90;;;1.30;;
4278;SDS011;2153;47.744;10.580;2023-05-10T08:30:38;11.27;;;1.33;;
4278;SDS011;2153;47.744;10.580;2023-05-10T08:33:04;17.53;;;1.67;;
4278;SDS011;2153;47.744;10.580;2023-05-10T08:35:31;10.87;;;1.27;;
4278;SDS011;2153;47.744;10.580;2023-05-10T08:38:01;10.73;;;1.30;;
4278;SDS011;2153;47.744;10.580;2023-05-10T08:40:27;12.30;;;1.30;;
4278;SDS011;2153;47.744;10.580;2023-05-10T08:42:55;11.00;;;1.30;;
4278;SDS011;2153;47.744;10.580;2023-05-10T08:45:30;12.10;;;1.60;;
4278;SDS011;2153;47.744;10.580;2023-05-10T08:47:59;11.30;;;1.43;;
4278;SDS011;2153;47.744;10.580;2023-05-10T08:50:27;10.90;;;0.90;;
4278;SDS011;2153;47.744;10.580;2023-05-10T08:52:57;15.10;;;1.00;;
4278;SDS011;2153;47.744;10.580;2023-05-10T08:55:29;10.37;;;0.80;;
4278;SDS011;2153;47.744;10.580;2023-05-10T08:57:58;10.37;;;0.90;;
4278;SDS011;2153;47.744;10.580;2023-05-10T09:00:26;12.90;;;1.10;;
4278;SDS011;2153;47.744;10.580;2023-05-10T09:02:54;12.70;;;0.83;;
4278;SDS011;2153;47.744;10.580;2023-05-10T09:05:21;11.20;;;0.90;;
4278;SDS011;2153;47.744;10.580;2023-05-10T09:07:47;10.27;;;0.90;;
4278;SDS011;2153;47.744;10.580;2023-05-10T09:10:15;10.73;;;0.97;;
4278;SDS011;2153;47.744;10.580;2023-05-10T09:12:42;17.13;;;0.90;;
4278;SDS011;2153;47.744;10.580;2023-05-10T09:15:10;11.40;;;1.00;;
4278;SDS011;2153;47.744;10.580;2023-05-10T09:17:39;10.57;;;0.83;;
4278;SDS011;2153;47.744;10.580;2023-05-10T09:20:07;26.23;;;1.30;;
4278;SDS011;2153;47.744;10.580;2023-05-10T09:22:34;20.77;;;1.27;;
4278;SDS011;2153;47.744;10.580;2023-05-10T09:25:05;10.63;;;1.10;;
4278;SDS011;2153;47.744;10.580;2023-05-10T09:27:34;10.70;;;1.00;;
4278;SDS011;2153;47.744;10.580;2023-05-10T09:30:01;10.50;;;1.10;;
4278;SDS011;2153;47.744;10.580;2023-05-10T09:32:37;12.43;;;1.27;;
4278;SDS011;2153;47.744;10.580;2023-05-10T09:35:08;10.57;;;1.03;;
4278;SDS011;2153;47.744;10.580;2023-05-10T09:37:36;10.63;;;1.00;;
4278;SDS011;2153;47.744;10.580;2023-05-10T09:40:06;10.57;;;1.20;;
4278;SDS011;2153;47.744;10.580;2023-05-10T09:42:35;10.77;;;1.00;;
4278;SDS011;2153;47.744;10.580;2023-05-10T09:45:02;10.70;;;1.30;;
4278;SDS011;2153;47.744;10.580;2023-05-10T09:47:31;10.67;;;1.20;;
4278;SDS011;2153;47.744;10.580;2023-05-10T09:49:58;17.87;;;2.37;;
4278;SDS011;2153;47.744;10.580;2023-05-10T09:52:29;12.93;;;1.10;;
4278;SDS011;2153;47.744;10.580;2023-05-10T09:54:56;16.03;;;1.50;;
4278;SDS011;2153;47.744;10.580;2023-05-10T09:57:23;11.13;;;1.17;;
4278;SDS011;2153;47.744;10.580;2023-05-10T09:59:52;13.60;;;1.13;;
4278;SDS011;2153;47.744;10.580;2023-05-10T10:02:20;11.50;;;1.10;;
4278;SDS011;2153;47.744;10.580;2023-05-10T10:04:48;13.00;;;1.23;;
4278;SDS011;2153;47.744;10.580;2023-05-10T10:07:17;11.73;;;1.20;;
4278;SDS011;2153;47.744;10.580;2023-05-10T10:09:49;10.57;;;1.00;;
4278;SDS011;2153;47.744;10.580;2023-05-10T10:12:16;11.70;;;1.27;;
4278;SDS011;2153;47.744;10.580;2023-05-10T10:14:44;12.00;;;1.30;;
4278;SDS011;2153;47.744;10.580;2023-05-10T10:17:13;10.93;;;1.20;;
4278;SDS011;2153;47.744;10.580;2023-05-10T10:19:40;10.73;;;1.30;;
4278;SDS011;2153;47.744;10.580;2023-05-10T10:22:07;14.40;;;1.40;;
4278;SDS011;2153;47.744;10.580;2023-05-10T10:24:36;11.47;;;1.43;;
4278;SDS011;2153;47.744;10.580;2023-05-10T10:27:06;16.40;;;2.23;;
4278;SDS011;2153;47.744;10.580;2023-05-10T10:29:46;10.50;;;1.20;;
4278;SDS011;2153;47.744;10.580;2023-05-10T10:32:21;12.07;;;1.60;;
4278;SDS011;2153;47.744;10.580;2023-05-10T10:34:52;11.77;;;1.57;;
4278;SDS011;2153;47.744;10.580;2023-05-10T10:37:20;11.27;;;1.67;;
4278;SDS011;2153;47.744;10.580;2023-05-10T10:39:47;11.40;;;1.30;;
4278;SDS011;2153;47.744;10.580;2023-05-10T10:42:14;11.77;;;1.00;;
4278;SDS011;2153;47.744;10.580;2023-05-10T10:45:13;13.20;;;1.17;;
4278;SDS011;2153;47.744;10.580;2023-05-10T10:47:42;10.90;;;1.20;;
4278;SDS011;2153;47.744;10.580;2023-05-10T10:50:10;11.50;;;1.30;;
4278;SDS011;2153;47.744;10.580;2023-05-10T10:52:38;10.83;;;1.30;;
4278;SDS011;2153;47.744;10.580;2023-05-10T10:55:06;14.90;;;1.53;;
4278;SDS011;2153;47.744;10.580;2023-05-10T10:57:42;10.53;;;1.07;;
4278;SDS011;2153;47.744;10.580;2023-05-10T11:00:20;10.67;;;1.20;;
4278;SDS011;2153;47.744;10.580;2023-05-10T11:02:55;10.70;;;1.17;;
4278;SDS011;2153;47.744;10.580;2023-05-10T11:05:24;11.47;;;1.27;;
4278;SDS011;2153;47.744;10.580;2023-05-10T11:08:16;11.37;;;1.10;;
4278;SDS011;2153;47.744;10.580;2023-05-10T11:13:39;10.70;;;1.30;;
4278;SDS011;2153;47.744;10.580;2023-05-10T11:16:14;11.00;;;1.30;;
4278;SDS011;2153;47.744;10.580;2023-05-10T11:18:53;11.70;;;1.60;;
4278;SDS011;2153;47.744;10.580;2023-05-10T11:21:24;12.07;;;1.27;;
4278;SDS011;2153;47.744;10.580;2023-05-10T11:23:51;11.63;;;1.37;;
4278;SDS011;2153;47.744;10.580;2023-05-10T11:26:21;11.40;;;1.30;;
4278;SDS011;2153;47.744;10.580;2023-05-10T11:28:50;11.90;;;1.47;;
4278;SDS011;2153;47.744;10.580;2023-05-10T11:31:19;11.70;;;1.47;;
4278;SDS011;2153;47.744;10.580;2023-05-10T11:33:47;13.40;;;1.80;;
4278;SDS011;2153;47.744;10.580;2023-05-10T11:36:17;10.50;;;1.10;;
4278;SDS011;2153;47.744;10.580;2023-05-10T11:38:45;11.20;;;1.30;;
4278;SDS011;2153;47.744;10.580;2023-05-10T11:41:12;10.70;;;1.17;;
4278;SDS011;2153;47.744;10.580;2023-05-10T11:43:39;10.60;;;1.17;;
4278;SDS011;2153;47.744;10.580;2023-05-10T11:46:07;12.07;;;1.03;;
4278;SDS011;2153;47.744;10.580;2023-05-10T11:48:36;12.40;;;1.10;;
4278;SDS011;2153;47.744;10.580;2023-05-10T11:51:04;10.80;;;1.20;;
4278;SDS011;2153;47.744;10.580;2023-05-10T11:53:33;11.60;;;1.00;;
4278;SDS011;2153;47.744;10.580;2023-05-10T11:56:03;11.13;;;1.00;;
4278;SDS011;2153;47.744;10.580;2023-05-10T11:58:31;10.77;;;1.20;;
4278;SDS011;2153;47.744;10.580;2023-05-10T12:00:58;14.13;;;2.20;;
4278;SDS011;2153;47.744;10.580;2023-05-10T12:03:25;11.20;;;1.30;;
4278;SDS011;2153;47.744;10.580;2023-05-10T12:05:52;11.73;;;1.10;;
4278;SDS011;2153;47.744;10.580;2023-05-10T12:08:20;10.40;;;0.80;;
4278;SDS011;2153;47.744;10.580;2023-05-10T12:10:50;11.03;;;1.17;;
4278;SDS011;2153;47.744;10.580;2023-05-10T12:13:17;12.87;;;1.03;;
4278;SDS011;2153;47.744;10.580;2023-05-10T12:15:45;17.50;;;2.00;;
4278;SDS011;2153;47.744;10.580;2023-05-10T12:18:12;12.93;;;1.30;;
4278;SDS011;2153;47.744;10.580;2023-05-10T12:20:40;10.80;;;1.47;;
4278;SDS011;2153;47.744;10.580;2023-05-10T12:23:08;13.90;;;1.70;;
4278;SDS011;2153;47.744;10.580;2023-05-10T12:25:36;11.37;;;1.60;;
4278;SDS011;2153;47.744;10.580;2023-05-10T12:28:05;12.80;;;1.10;;
4278;SDS011;2153;47.744;10.580;2023-05-10T12:30:33;11.00;;;1.20;;
4278;SDS011;2153;47.744;10.580;2023-05-10T12:33:01;10.77;;;1.30;;
4278;SDS011;2153;47.744;10.580;2023-05-10T12:35:33;17.00;;;1.67;;
4278;SDS011;2153;47.744;10.580;2023-05-10T12:38:22;11.57;;;1.30;;
4278;SDS011;2153;47.744;10.580;2023-05-10T12:40:51;10.53;;;1.07;;
4278;SDS011;2153;47.744;10.580;2023-05-10T12:43:19;11.87;;;1.40;;
4278;SDS011;2153;47.744;10.580;2023-05-10T12:45:46;10.70;;;1.20;;
4278;SDS011;2153;47.744;10.580;2023-05-10T12:48:13;12.87;;;1.50;;
4278;SDS011;2153;47.744;10.580;2023-05-10T12:50:40;11.20;;;1.70;;
4278;SDS011;2153;47.744;10.580;2023-05-10T12:53:07;12.63;;;1.50;;
4278;SDS011;2153;47.744;10.580;2023-05-10T12:55:34;15.23;;;1.33;;
4278;SDS011;2153;47.744;10.580;2023-05-10T12:58:00;12.43;;;1.90;;
4278;SDS011;2153;47.744;10.580;2023-05-10T13:00:29;12.63;;;1.03;;
4278;SDS011;2153;47.744;10.580;2023-05-10T13:02:56;11.17;;;0.80;;
4278;SDS011;2153;47.744;10.580;2023-05-10T13:05:22;11.50;;;1.10;;
4278;SDS011;2153;47.744;10.580;2023-05-10T13:07:49;10.40;;;0.83;;
4278;SDS011;2153;47.744;10.580;2023-05-10T13:10:16;13.23;;;1.03;;
4278;SDS011;2153;47.744;10.580;2023-05-10T13:12:42;10.63;;;1.10;;
4278;SDS011;2153;47.744;10.580;2023-05-10T13:15:09;12.50;;;0.83;;
4278;SDS011;2153;47.744;10.580;2023-05-10T13:17:37;10.40;;;0.97;;
4278;SDS011;2153;47.744;10.580;2023-05-10T13:20:06;10.90;;;1.10;;
4278;SDS011;2153;47.744;10.580;2023-05-10T13:22:33;10.37;;;0.90;;
4278;SDS011;2153;47.744;10.580;2023-05-10T13:25:00;11.40;;;1.10;;
4278;SDS011;2153;47.744;10.580;2023-05-10T13:27:26;11.53;;;1.30;;
4278;SDS011;2153;47.744;10.580;2023-05-10T13:29:53;14.70;;;1.30;;
4278;SDS011;2153;47.744;10.580;2023-05-10T13:32:20;10.90;;;1.20;;
4278;SDS011;2153;47.744;10.580;2023-05-10T13:34:48;10.90;;;1.00;;
4278;SDS011;2153;47.744;10.580;2023-05-10T13:37:15;12.13;;;1.00;;
4278;SDS011;2153;47.744;10.580;2023-05-10T13:39:42;11.33;;;1.10;;
4278;SDS011;2153;47.744;10.580;2023-05-10T13:42:09;11.00;;;1.43;;
4278;SDS011;2153;47.744;10.580;2023-05-10T13:44:35;11.10;;;1.50;;
4278;SDS011;2153;47.744;10.580;2023-05-10T13:47:03;11.00;;;1.40;;
4278;SDS011;2153;47.744;10.580;2023-05-10T13:49:30;12.93;;;1.33;;
4278;SDS011;2153;47.744;10.580;2023-05-10T13:51:58;12.23;;;1.20;;
4278;SDS011;2153;47.744;10.580;2023-05-10T13:54:30;12.97;;;1.20;;
4278;SDS011;2153;47.744;10.580;2023-05-10T13:56:57;11.23;;;1.10;;
4278;SDS011;2153;47.744;10.580;2023-05-10T13:59:24;10.57;;;1.17;;
4278;SDS011;2153;47.744;10.580;2023-05-10T14:01:50;13.13;;;1.40;;
4278;SDS011;2153;47.744;10.580;2023-05-10T14:04:17;15.87;;;2.30;;
4278;SDS011;2153;47.744;10.580;2023-05-10T14:06:44;11.10;;;1.13;;
4278;SDS011;2153;47.744;10.580;2023-05-10T14:09:12;11.40;;;1.20;;
4278;SDS011;2153;47.744;10.580;2023-05-10T14:11:39;11.03;;;1.17;;
4278;SDS011;2153;47.744;10.580;2023-05-10T14:14:08;10.30;;;0.90;;
4278;SDS011;2153;47.744;10.580;2023-05-10T14:16:34;12.03;;;1.03;;
4278;SDS011;2153;47.744;10.580;2023-05-10T14:19:01;11.50;;;1.30;;
4278;SDS011;2153;47.744;10.580;2023-05-10T14:21:28;10.33;;;1.00;;
4278;SDS011;2153;47.744;10.580;2023-05-10T14:23:55;10.77;;;1.17;;
4278;SDS011;2153;47.744;10.580;2023-05-10T14:26:23;19.97;;;1.37;;
4278;SDS011;2153;47.744;10.580;2023-05-10T14:28:51;10.37;;;1.00;;
4278;SDS011;2153;47.744;10.580;2023-05-10T14:31:18;10.83;;;1.30;;
4278;SDS011;2153;47.744;10.580;2023-05-10T14:33:45;13.53;;;1.47;;
4278;SDS011;2153;47.744;10.580;2023-05-10T14:36:12;12.07;;;1.30;;
4278;SDS011;2153;47.744;10.580;2023-05-10T14:38:39;12.90;;;1.50;;
4278;SDS011;2153;47.744;10.580;2023-05-10T14:41:06;13.50;;;1.87;;
4278;SDS011;2153;47.744;10.580;2023-05-10T14:43:34;13.47;;;2.40;;
4278;SDS011;2153;47.744;10.580;2023-05-10T14:46:01;15.20;;;2.80;;
4278;SDS011;2153;47.744;10.580;2023-05-10T14:48:28;12.40;;;1.90;;
4278;SDS011;2153;47.744;10.580;2023-05-10T14:50:55;13.20;;;2.70;;
4278;SDS011;2153;47.744;10.580;2023-05-10T14:53:21;14.77;;;3.47;;
4278;SDS011;2153;47.744;10.580;2023-05-10T14:55:48;15.50;;;3.47;;
4278;SDS011;2153;47.744;10.580;2023-05-10T14:58:15;13.47;;;2.30;;
4278;SDS011;2153;47.744;10.580;2023-05-10T15:00:43;13.50;;;2.37;;